Time;durP1;ratioP1;P1;durP2;ratioP2;P2;SDS_P1;SDS_P2;PMS_P1;PMS_P2;Temp;Humidity;BMP_temperature;BMP_pressure;BME280_temperature;BME280_humidity;BME280_pressure;Samples;Min_cycle;Max_cycle;Signal;HPM_P1;HPM_P2
2021/06/30 00:01:18;;;;;;;18.85;15.23;;;19.60;99.90;;;;;;5089044;28;20020;-78
2021/06/30 00:03:44;;;;;;;23.88;15.90;;;19.60;99.90;;;;;;5088875;28;20016;-78
2021/06/30 00:06:10;;;;;;;21.48;16.52;;;19.60;99.90;;;;;;5088693;28;20115;-78
2021/06/30 00:08:35;;;;;;;22.55;16.30;;;19.60;99.90;;;;;;5088575;28;20135;-78
2021/06/30 00:11:01;;;;;;;26.38;16.40;;;19.60;99.90;;;;;;5088864;28;20032;-78
2021/06/30 00:13:27;;;;;;;24.27;16.45;;;19.50;99.90;;;;;;5083165;28;20479;-78
2021/06/30 00:15:54;;;;;;;34.65;16.50;;;19.50;99.90;;;;;;5068641;28;20048;-78
2021/06/30 00:18:22;;;;;;;20.08;15.48;;;19.50;99.90;;;;;;5068448;28;20033;-78
2021/06/30 00:20:49;;;;;;;24.42;16.17;;;19.50;99.90;;;;;;5068579;28;20074;-78
2021/06/30 00:23:14;;;;;;;21.60;15.45;;;19.50;99.90;;;;;;5068531;28;20051;-78
2021/06/30 00:25:41;;;;;;;21.63;15.23;;;19.50;99.90;;;;;;5081740;28;20556;-78
2021/06/30 00:28:06;;;;;;;23.35;16.63;;;19.50;99.90;;;;;;5075146;28;20036;-78
2021/06/30 00:30:32;;;;;;;24.35;17.80;;;19.50;99.90;;;;;;5088760;28;20043;-78
2021/06/30 00:32:57;;;;;;;23.70;16.65;;;19.50;99.90;;;;;;5088387;28;20093;-78
2021/06/30 00:35:23;;;;;;;21.17;15.95;;;19.50;99.90;;;;;;5088683;28;20024;-78
2021/06/30 00:37:48;;;;;;;23.17;17.38;;;19.50;99.90;;;;;;5088460;28;20028;-78
2021/06/30 00:40:14;;;;;;;22.48;16.52;;;19.60;99.90;;;;;;5088335;28;20051;-78
2021/06/30 00:42:40;;;;;;;23.38;16.92;;;19.60;99.90;;;;;;5088544;28;20032;-78
2021/06/30 00:45:07;;;;;;;24.75;16.55;;;19.60;99.90;;;;;;5088423;28;20032;-78
2021/06/30 00:47:33;;;;;;;21.10;16.60;;;19.60;99.90;;;;;;5089663;28;20028;-78
2021/06/30 00:49:59;;;;;;;27.38;18.17;;;19.60;99.90;;;;;;5092283;28;20513;-78
2021/06/30 00:52:24;;;;;;;23.80;16.92;;;19.70;99.90;;;;;;5091045;28;20115;-78
2021/06/30 00:54:50;;;;;;;28.33;18.05;;;19.70;99.90;;;;;;5092328;28;20024;-78
2021/06/30 00:57:17;;;;;;;24.55;17.33;;;19.70;99.90;;;;;;5092234;28;20410;-78
2021/06/30 00:59:43;;;;;;;24.35;18.10;;;19.70;99.90;;;;;;5092183;28;20077;-78
2021/06/30 01:02:09;;;;;;;27.23;17.30;;;19.70;99.90;;;;;;5092112;28;20475;-78
2021/06/30 01:04:34;;;;;;;25.38;17.10;;;19.70;99.90;;;;;;5092264;28;20394;-78
2021/06/30 01:07:00;;;;;;;24.75;18.38;;;19.70;99.90;;;;;;5092089;28;20023;-78
2021/06/30 01:09:25;;;;;;;25.42;17.25;;;19.80;99.90;;;;;;5091894;28;20052;-78
2021/06/30 01:11:51;;;;;;;23.40;17.45;;;19.80;99.90;;;;;;5092000;28;20035;-78
2021/06/30 01:14:28;;;;;;;25.58;17.38;;;19.80;99.90;;;;;;5091785;28;20504;-78
2021/06/30 01:16:57;;;;;;;22.85;16.77;;;19.80;99.90;;;;;;5092258;28;20036;-78
2021/06/30 01:19:23;;;;;;;26.35;17.67;;;19.80;99.90;;;;;;5091609;28;20024;-78
2021/06/30 01:21:50;;;;;;;25.38;17.65;;;19.80;99.90;;;;;;5091762;28;20479;-78
2021/06/30 01:24:16;;;;;;;22.33;17.27;;;19.80;99.90;;;;;;5091628;28;20028;-78
2021/06/30 01:26:41;;;;;;;24.52;17.70;;;19.80;99.90;;;;;;5092037;28;20027;-78
2021/06/30 01:29:07;;;;;;;24.38;17.23;;;19.80;99.90;;;;;;5091497;28;20389;-78
2021/06/30 01:31:33;;;;;;;23.30;16.98;;;19.80;99.90;;;;;;5091784;28;20020;-78
2021/06/30 01:33:58;;;;;;;20.95;17.17;;;19.80;99.90;;;;;;5091527;28;20089;-78
2021/06/30 01:36:24;;;;;;;24.08;17.95;;;19.80;99.90;;;;;;5091522;28;20119;-78
2021/06/30 01:38:49;;;;;;;25.48;17.98;;;19.80;99.90;;;;;;5091497;28;20048;-78
2021/06/30 01:41:15;;;;;;;24.38;17.60;;;19.80;99.90;;;;;;5091393;28;20272;-78
2021/06/30 01:43:41;;;;;;;24.60;18.88;;;19.80;99.90;;;;;;5091405;28;20431;-78
2021/06/30 01:46:07;;;;;;;25.23;18.25;;;19.80;99.90;;;;;;5091279;28;20375;-78
2021/06/30 01:48:34;;;;;;;24.30;18.42;;;19.80;99.90;;;;;;5091491;28;20505;-78
2021/06/30 01:51:00;;;;;;;22.92;16.95;;;19.80;99.90;;;;;;5091412;28;20444;-78
2021/06/30 01:53:26;;;;;;;25.30;18.52;;;19.80;99.90;;;;;;5089977;28;20024;-78
2021/06/30 01:55:51;;;;;;;23.52;17.15;;;19.80;99.90;;;;;;5091424;28;20035;-78
2021/06/30 01:58:22;;;;;;;22.40;16.98;;;19.80;99.90;;;;;;5090956;28;20036;-78
2021/06/30 02:00:50;;;;;;;24.70;18.05;;;19.80;99.90;;;;;;5090598;28;20044;-78
2021/06/30 02:03:15;;;;;;;25.05;17.55;;;19.80;99.90;;;;;;5090901;28;20031;-78
2021/06/30 02:05:41;;;;;;;29.05;19.52;;;19.90;99.90;;;;;;5091382;28;20024;-78
2021/06/30 02:08:06;;;;;;;22.73;18.30;;;19.80;99.90;;;;;;5090788;28;20054;-78
2021/06/30 02:10:32;;;;;;;28.58;19.38;;;19.80;99.90;;;;;;5090761;28;20120;-78
2021/06/30 02:12:57;;;;;;;30.25;19.35;;;19.80;99.90;;;;;;5091065;28;20395;-79
2021/06/30 02:15:28;;;;;;;22.73;17.90;;;19.80;99.90;;;;;;5090742;28;20051;-78
2021/06/30 02:17:55;;;;;;;24.80;18.98;;;19.80;99.90;;;;;;5080347;28;20036;-78
2021/06/30 02:20:21;;;;;;;33.90;18.67;;;19.80;99.90;;;;;;5079627;28;20102;-78
2021/06/30 02:22:47;;;;;;;24.65;18.20;;;19.80;99.90;;;;;;5090768;28;20028;-78
2021/06/30 02:25:16;;;;;;;27.48;19.88;;;19.80;99.90;;;;;;5090255;28;20077;-78
2021/06/30 02:27:42;;;;;;;29.33;21.23;;;19.80;99.90;;;;;;5090582;28;20039;-78
2021/06/30 02:30:11;;;;;;;27.75;20.60;;;19.90;99.90;;;;;;5090388;28;20080;-79
2021/06/30 02:32:37;;;;;;;24.98;19.38;;;19.90;99.90;;;;;;5090536;28;20553;-78
2021/06/30 02:35:05;;;;;;;22.80;18.05;;;19.80;99.90;;;;;;5090415;28;20020;-79
2021/06/30 02:37:31;;;;;;;25.83;18.38;;;19.80;99.90;;;;;;5090331;28;20073;-79
2021/06/30 02:39:56;;;;;;;25.67;18.55;;;19.80;99.90;;;;;;5090301;28;20107;-78
2021/06/30 02:42:22;;;;;;;23.30;18.27;;;19.80;99.90;;;;;;5090173;28;20031;-78
2021/06/30 02:44:48;;;;;;;26.88;19.58;;;19.70;99.90;;;;;;5090234;28;20020;-78
2021/06/30 02:47:13;;;;;;;24.08;18.50;;;19.70;99.90;;;;;;5089962;28;20035;-78
2021/06/30 02:49:38;;;;;;;24.90;18.48;;;19.70;99.90;;;;;;5090318;28;20023;-78
2021/06/30 02:52:04;;;;;;;24.38;17.48;;;19.70;99.90;;;;;;5089913;28;20114;-78
2021/06/30 02:54:30;;;;;;;28.30;18.23;;;19.70;99.90;;;;;;5089871;28;20035;-78
2021/06/30 02:56:55;;;;;;;25.60;18.25;;;19.70;99.90;;;;;;5090031;28;20016;-78
2021/06/30 02:59:21;;;;;;;25.38;18.50;;;19.70;99.90;;;;;;5089632;28;20052;-78
2021/06/30 03:01:46;;;;;;;29.48;18.15;;;19.70;99.90;;;;;;5090002;28;20020;-78
2021/06/30 03:04:12;;;;;;;26.67;19.27;;;19.80;99.90;;;;;;5089566;28;20028;-78
2021/06/30 03:06:37;;;;;;;24.60;18.40;;;19.80;99.90;;;;;;5089723;28;20227;-78
2021/06/30 03:09:03;;;;;;;25.90;17.88;;;19.80;99.90;;;;;;5089636;28;20059;-78
2021/06/30 03:11:28;;;;;;;29.75;19.73;;;19.80;99.90;;;;;;5088655;28;20386;-78
2021/06/30 03:13:54;;;;;;;26.38;18.63;;;19.80;99.90;;;;;;5089719;28;20024;-78
2021/06/30 03:16:19;;;;;;;27.92;19.38;;;19.80;99.90;;;;;;5089532;28;20028;-79
2021/06/30 03:18:45;;;;;;;29.30;19.35;;;19.80;99.90;;;;;;5089454;28;20771;-78
2021/06/30 03:21:10;;;;;;;28.75;20.13;;;19.80;99.90;;;;;;5089325;28;20433;-78
2021/06/30 03:23:37;;;;;;;29.73;19.92;;;19.80;99.90;;;;;;5089471;28;20020;-78
2021/06/30 03:26:05;;;;;;;24.88;17.83;;;19.80;99.90;;;;;;5089453;28;20490;-79
2021/06/30 03:28:30;;;;;;;24.90;18.63;;;19.90;99.90;;;;;;5089457;28;20051;-79
2021/06/30 03:30:55;;;;;;;25.45;18.67;;;19.80;99.90;;;;;;5089317;28;20102;-79
2021/06/30 03:33:21;;;;;;;23.30;18.48;;;19.90;99.90;;;;;;5089518;28;20028;-79
2021/06/30 03:35:46;;;;;;;23.05;17.23;;;19.80;99.90;;;;;;5089319;28;20025;-79
2021/06/30 03:38:12;;;;;;;27.25;18.38;;;19.80;99.90;;;;;;5089333;28;20466;-79
2021/06/30 03:40:37;;;;;;;21.42;16.40;;;19.80;99.90;;;;;;5089221;28;20035;-78
2021/06/30 03:43:03;;;;;;;21.70;16.52;;;19.70;99.90;;;;;;5089019;28;20020;-78
2021/06/30 03:45:28;;;;;;;22.60;16.95;;;19.80;99.90;;;;;;5088947;28;20106;-79
2021/06/30 03:47:54;;;;;;;24.10;18.23;;;19.70;99.90;;;;;;5089299;28;20047;-79
2021/06/30 03:50:19;;;;;;;24.05;18.17;;;19.70;99.90;;;;;;5088851;28;20031;-79
2021/06/30 03:52:45;;;;;;;24.70;18.77;;;19.70;99.90;;;;;;5089122;28;20498;-78
2021/06/30 03:55:11;;;;;;;21.33;17.05;;;19.70;99.90;;;;;;5089210;28;20024;-79
2021/06/30 03:57:36;;;;;;;21.52;17.00;;;19.70;99.90;;;;;;5088788;28;20497;-79
2021/06/30 04:00:06;;;;;;;25.17;16.77;;;19.70;99.90;;;;;;5088962;28;20023;-78
2021/06/30 04:02:32;;;;;;;20.92;16.70;;;19.70;99.90;;;;;;5088959;28;20020;-78
2021/06/30 04:04:57;;;;;;;25.05;16.70;;;19.60;99.90;;;;;;5088694;28;20034;-79
2021/06/30 04:07:23;;;;;;;22.38;16.23;;;19.70;99.90;;;;;;5088463;28;20031;-79
2021/06/30 04:09:48;;;;;;;22.75;16.13;;;19.60;99.90;;;;;;5088819;28;20167;-78
2021/06/30 04:12:14;;;;;;;23.55;16.70;;;19.60;99.90;;;;;;5088657;28;20035;-78
2021/06/30 04:14:39;;;;;;;21.73;16.00;;;19.70;99.90;;;;;;5088982;28;21194;-78
2021/06/30 04:17:05;;;;;;;22.23;17.00;;;19.70;99.90;;;;;;5089055;28;20482;-79
2021/06/30 04:19:30;;;;;;;21.02;16.42;;;19.60;99.90;;;;;;5088535;28;20032;-78
2021/06/30 04:21:56;;;;;;;21.10;16.58;;;19.60;99.90;;;;;;5089733;28;20108;-78
2021/06/30 04:24:21;;;;;;;22.23;16.85;;;19.60;99.90;;;;;;5095241;28;20425;-78
2021/06/30 04:26:47;;;;;;;24.48;17.10;;;19.60;99.90;;;;;;5094192;28;20059;-79
2021/06/30 04:29:12;;;;;;;24.50;16.40;;;19.60;99.90;;;;;;5095436;28;20095;-78
2021/06/30 04:31:38;;;;;;;21.25;16.38;;;19.60;99.90;;;;;;5095585;28;20016;-78
2021/06/30 04:34:03;;;;;;;23.17;17.60;;;19.70;99.90;;;;;;5095643;28;20016;-79
2021/06/30 04:36:29;;;;;;;23.13;16.73;;;19.70;99.90;;;;;;5095286;28;20540;-79
2021/06/30 04:38:54;;;;;;;24.63;17.70;;;19.60;99.90;;;;;;5095228;28;20268;-79
2021/06/30 04:41:20;;;;;;;22.85;17.00;;;19.60;99.90;;;;;;5095136;28;20024;-78
2021/06/30 04:43:46;;;;;;;27.27;17.95;;;19.60;99.90;;;;;;5095275;28;20020;-79
2021/06/30 04:46:12;;;;;;;26.67;18.25;;;19.70;99.90;;;;;;5095282;28;20016;-78
2021/06/30 04:48:39;;;;;;;30.80;19.20;;;19.60;99.90;;;;;;5095183;28;20028;-78
2021/06/30 04:51:04;;;;;;;30.02;20.13;;;19.60;99.90;;;;;;5095441;28;20467;-78
2021/06/30 04:53:30;;;;;;;29.00;19.45;;;19.60;99.90;;;;;;5095103;28;20034;-78
2021/06/30 04:55:56;;;;;;;27.38;21.58;;;19.60;99.90;;;;;;5095235;28;20043;-79
2021/06/30 04:58:23;;;;;;;27.33;20.58;;;19.40;99.90;;;;;;5094629;28;20501;-78
2021/06/30 05:00:53;;;;;;;20.77;16.00;;;19.20;99.90;;;;;;5095022;28;20105;-78
2021/06/30 05:03:19;;;;;;;25.25;17.75;;;19.10;99.90;;;;;;5095085;28;20020;-78
2021/06/30 05:05:45;;;;;;;25.67;18.52;;;19.10;99.90;;;;;;5095103;28;20091;-78
2021/06/30 05:08:10;;;;;;;25.98;17.70;;;19.00;99.90;;;;;;5094760;28;20157;-79
2021/06/30 05:10:37;;;;;;;40.08;17.13;;;19.00;99.90;;;;;;5094974;28;20035;-79
2021/06/30 05:13:02;;;;;;;19.00;15.38;;;19.00;99.90;;;;;;5094991;28;20020;-79
2021/06/30 05:15:28;;;;;;;22.63;16.40;;;19.00;99.90;;;;;;5094882;28;20043;-79
2021/06/30 05:17:53;;;;;;;21.27;16.92;;;18.90;99.90;;;;;;5094816;28;20564;-79
2021/06/30 05:20:19;;;;;;;21.42;15.60;;;19.00;99.90;;;;;;5095293;28;20374;-79
2021/06/30 05:22:44;;;;;;;20.23;15.43;;;19.00;99.90;;;;;;5094991;28;20512;-80
2021/06/30 05:25:11;;;;;;;15.60;13.45;;;19.00;99.90;;;;;;5094949;28;20020;-78
2021/06/30 05:27:36;;;;;;;16.05;12.48;;;18.90;99.90;;;;;;5094629;28;20544;-79
2021/06/30 05:30:03;;;;;;;15.10;11.80;;;18.90;99.90;;;;;;5094955;28;20487;-78
2021/06/30 05:32:29;;;;;;;12.50;10.77;;;18.90;99.90;;;;;;5094615;28;20076;-78
2021/06/30 05:34:54;;;;;;;18.02;12.48;;;18.90;99.90;;;;;;5091492;28;20023;-79
2021/06/30 05:37:20;;;;;;;14.02;11.18;;;18.90;99.90;;;;;;5091307;28;20020;-79
2021/06/30 05:39:45;;;;;;;14.02;11.18;;;18.90;99.90;;;;;;5091520;28;20031;-79
2021/06/30 05:42:10;;;;;;;17.33;11.45;;;18.90;99.90;;;;;;5091355;28;20428;-79
2021/06/30 05:44:36;;;;;;;13.85;10.90;;;18.90;99.90;;;;;;5091461;28;20062;-79
2021/06/30 05:47:02;;;;;;;14.77;11.50;;;18.90;99.90;;;;;;5091524;28;20015;-79
2021/06/30 05:49:27;;;;;;;19.70;11.10;;;18.90;99.90;;;;;;5091276;28;20436;-79
2021/06/30 05:51:52;;;;;;;15.43;11.65;;;18.90;99.90;;;;;;5091344;28;20505;-78
2021/06/30 05:54:18;;;;;;;13.85;10.68;;;18.90;99.90;;;;;;5091319;28;20032;-78
2021/06/30 05:56:44;;;;;;;12.05;9.85;;;18.90;99.90;;;;;;5091250;28;20388;-78
2021/06/30 05:59:10;;;;;;;12.43;9.35;;;18.90;99.90;;;;;;5091098;28;20024;-78
2021/06/30 06:01:35;;;;;;;11.48;9.52;;;18.90;99.90;;;;;;5090954;28;20024;-78
2021/06/30 06:04:01;;;;;;;14.20;10.02;;;18.90;99.90;;;;;;5091226;28;20016;-79
2021/06/30 06:06:27;;;;;;;12.02;10.13;;;18.90;99.90;;;;;;5090839;28;20017;-79
2021/06/30 06:08:52;;;;;;;12.50;10.35;;;18.90;99.90;;;;;;5090924;28;20131;-79
2021/06/30 06:11:18;;;;;;;13.40;10.43;;;18.90;99.90;;;;;;5090868;28;20016;-79
2021/06/30 06:13:45;;;;;;;15.10;10.60;;;19.00;99.90;;;;;;5090704;28;20220;-79
2021/06/30 06:16:12;;;;;;;16.70;11.75;;;19.00;99.90;;;;;;5090884;28;20371;-79
2021/06/30 06:18:38;;;;;;;15.32;11.68;;;19.00;99.90;;;;;;5090702;28;20024;-79
2021/06/30 06:21:03;;;;;;;13.93;11.20;;;19.00;99.90;;;;;;5090882;28;20394;-80
2021/06/30 06:23:29;;;;;;;16.20;11.63;;;19.00;99.90;;;;;;5090661;28;20103;-79
2021/06/30 06:25:55;;;;;;;15.63;11.45;;;19.00;99.90;;;;;;5090697;28;20102;-79
2021/06/30 06:28:20;;;;;;;16.25;11.50;;;19.00;99.90;;;;;;5090426;28;20031;-79
2021/06/30 06:30:48;;;;;;;16.75;11.75;;;19.10;99.90;;;;;;5090384;28;20224;-79
2021/06/30 06:33:18;;;;;;;16.83;12.77;;;19.10;99.90;;;;;;5090602;28;20035;-78
2021/06/30 06:35:47;;;;;;;17.20;11.77;;;19.10;99.90;;;;;;5090528;28;20093;-78
2021/06/30 06:38:12;;;;;;;17.75;12.30;;;19.10;99.90;;;;;;5090364;28;20471;-79
2021/06/30 06:40:39;;;;;;;16.63;12.57;;;19.00;99.90;;;;;;5090304;28;20020;-79
2021/06/30 06:43:06;;;;;;;16.67;11.98;;;19.00;99.90;;;;;;5090341;28;20020;-78
2021/06/30 06:45:31;;;;;;;14.32;11.07;;;19.00;99.90;;;;;;5089898;28;20028;-79
2021/06/30 06:47:57;;;;;;;14.30;10.30;;;18.90;99.90;;;;;;5090280;28;20035;-79
2021/06/30 06:50:22;;;;;;;13.70;10.88;;;19.00;99.90;;;;;;5089969;28;20031;-79
2021/06/30 06:52:48;;;;;;;13.15;10.40;;;19.00;99.90;;;;;;5090151;28;20352;-80
2021/06/30 06:55:14;;;;;;;13.15;11.00;;;19.00;99.90;;;;;;5090035;28;20024;-78
2021/06/30 06:57:39;;;;;;;15.10;10.27;;;18.90;99.90;;;;;;5089880;28;20382;-79
2021/06/30 07:00:06;;;;;;;18.10;13.45;;;18.90;99.90;;;;;;5089950;28;20031;-78
2021/06/30 07:02:32;;;;;;;17.35;13.90;;;18.90;99.90;;;;;;5089906;28;20386;-80
2021/06/30 07:04:58;;;;;;;15.90;12.15;;;19.00;99.90;;;;;;5089979;28;20016;-80
2021/06/30 07:07:24;;;;;;;16.20;11.75;;;19.00;99.90;;;;;;5089615;28;20028;-79
2021/06/30 07:09:49;;;;;;;15.77;12.20;;;19.00;99.90;;;;;;5090081;28;20175;-79
2021/06/30 07:12:15;;;;;;;13.45;11.63;;;19.00;99.90;;;;;;5089761;28;20024;-80
2021/06/30 07:14:41;;;;;;;12.93;10.65;;;19.00;99.90;;;;;;5089563;28;20020;-80
2021/06/30 07:17:07;;;;;;;12.45;10.30;;;19.00;99.90;;;;;;5089906;28;20437;-78
2021/06/30 07:19:32;;;;;;;13.65;11.13;;;19.10;99.90;;;;;;5089454;28;20053;-80
2021/06/30 07:21:58;;;;;;;14.38;11.70;;;19.10;99.90;;;;;;5089740;28;20099;-79
2021/06/30 07:24:23;;;;;;;15.23;11.80;;;19.10;99.90;;;;;;5089378;28;20536;-80
2021/06/30 07:26:49;;;;;;;16.58;12.27;;;19.10;99.90;;;;;;5089508;28;20028;-78
2021/06/30 07:29:14;;;;;;;17.77;13.68;;;19.10;99.90;;;;;;5089800;28;20031;-80
2021/06/30 07:31:40;;;;;;;16.35;13.82;;;19.10;99.90;;;;;;5089388;28;20391;-79
2021/06/30 07:34:05;;;;;;;17.75;13.68;;;19.10;99.90;;;;;;5089342;28;20502;-79
2021/06/30 07:36:31;;;;;;;17.70;13.15;;;19.20;99.90;;;;;;5089140;28;20024;-80
2021/06/30 07:38:57;;;;;;;17.35;13.82;;;19.20;99.90;;;;;;5089196;28;20082;-79
2021/06/30 07:41:22;;;;;;;17.13;13.55;;;19.20;99.90;;;;;;5089186;28;20115;-79
2021/06/30 07:43:48;;;;;;;18.75;11.60;;;19.20;99.90;;;;;;5089331;28;20149;-80
2021/06/30 07:46:13;;;;;;;18.50;13.15;;;19.20;99.90;;;;;;5087979;28;20406;-78
2021/06/30 07:48:39;;;;;;;16.30;12.75;;;19.20;99.90;;;;;;5088968;28;20085;-79
2021/06/30 07:51:04;;;;;;;13.40;11.10;;;19.20;99.90;;;;;;5089532;28;20431;-80
2021/06/30 07:53:30;;;;;;;14.88;10.63;;;19.20;99.90;;;;;;5088796;28;20024;-80
2021/06/30 07:55:56;;;;;;;11.98;9.27;;;19.20;99.90;;;;;;5089149;28;20036;-79
2021/06/30 07:58:21;;;;;;;11.30;9.52;;;19.30;99.90;;;;;;5088145;28;20418;-79
2021/06/30 08:00:48;;;;;;;13.63;9.77;;;19.20;99.90;;;;;;5089011;28;20199;-80
2021/06/30 08:03:14;;;;;;;13.73;9.80;;;19.20;99.90;;;;;;5088826;28;20587;-79
2021/06/30 08:05:39;;;;;;;12.75;9.82;;;19.20;99.90;;;;;;5088792;28;20038;-79
2021/06/30 08:08:05;;;;;;;10.27;9.13;;;19.20;99.90;;;;;;5088674;28;20036;-79
2021/06/30 08:10:31;;;;;;;11.02;8.65;;;19.20;99.90;;;;;;5088820;28;20020;-79
2021/06/30 08:12:56;;;;;;;16.83;9.57;;;19.20;99.90;;;;;;5088813;28;20051;-79
2021/06/30 08:15:23;;;;;;;10.70;8.07;;;19.20;99.90;;;;;;5088812;28;20095;-79
2021/06/30 08:17:49;;;;;;;10.20;7.32;;;19.10;99.90;;;;;;5085639;28;20028;-79
2021/06/30 08:20:15;;;;;;;8.77;7.65;;;19.00;99.90;;;;;;5076238;28;20108;-78
2021/06/30 08:22:41;;;;;;;9.50;7.63;;;19.00;99.90;;;;;;5083109;28;20099;-80
2021/06/30 08:25:09;;;;;;;12.27;8.13;;;19.00;99.90;;;;;;5087373;28;20020;-79
2021/06/30 08:27:36;;;;;;;10.38;8.88;;;18.90;99.90;;;;;;5088425;28;20535;-79
2021/06/30 08:30:04;;;;;;;16.65;12.35;;;19.00;99.90;;;;;;5088995;28;20036;-79
2021/06/30 08:32:29;;;;;;;13.60;10.02;;;19.10;99.90;;;;;;5088323;28;20079;-79
2021/06/30 08:34:55;;;;;;;14.90;11.50;;;19.10;99.90;;;;;;5088615;28;20522;-80
2021/06/30 08:37:22;;;;;;;13.25;11.15;;;19.20;99.90;;;;;;5088530;28;20116;-79
2021/06/30 08:39:52;;;;;;;12.45;10.13;;;19.20;99.90;;;;;;5088445;28;20016;-79
2021/06/30 08:42:18;;;;;;;12.35;10.32;;;19.20;99.90;;;;;;5088606;28;20099;-79
2021/06/30 08:44:44;;;;;;;12.02;9.75;;;19.20;99.90;;;;;;5088524;28;20024;-79
2021/06/30 08:47:10;;;;;;;11.70;8.70;;;19.30;99.90;;;;;;5088807;28;20024;-79
2021/06/30 08:49:42;;;;;;;11.13;9.70;;;19.30;99.90;;;;;;5078105;28;20115;-79
2021/06/30 08:52:09;;;;;;;12.65;10.35;;;19.30;99.90;;;;;;5067031;28;20713;-79
2021/06/30 08:54:35;;;;;;;11.02;8.07;;;19.30;99.90;;;;;;5068146;28;20490;-79
2021/06/30 08:57:01;;;;;;;9.70;6.63;;;19.30;99.90;;;;;;5068230;28;20029;-79
2021/06/30 08:59:27;;;;;;;8.05;7.00;;;19.30;99.90;;;;;;5085572;28;20035;-80
2021/06/30 09:01:52;;;;;;;8.20;7.00;;;19.30;99.90;;;;;;5088424;28;20032;-79
2021/06/30 09:04:18;;;;;;;10.88;6.88;;;19.30;99.90;;;;;;5088340;28;20035;-79
2021/06/30 09:06:44;;;;;;;11.20;6.60;;;19.30;99.90;;;;;;5088133;28;20087;-80
2021/06/30 09:09:14;;;;;;;7.28;6.50;;;19.30;99.90;;;;;;5088816;28;20066;-79
2021/06/30 09:11:42;;;;;;;8.13;6.78;;;19.30;99.90;;;;;;5091919;28;20048;-80
2021/06/30 09:14:23;;;;;;;8.80;6.85;;;19.30;99.90;;;;;;5090752;28;20032;-80
2021/06/30 09:16:59;;;;;;;7.88;6.15;;;19.30;99.90;;;;;;5092143;28;20027;-79
2021/06/30 09:19:48;;;;;;;7.28;5.88;;;19.30;99.90;;;;;;5091809;28;20103;-80
2021/06/30 09:22:15;;;;;;;9.63;6.40;;;19.30;99.90;;;;;;5092060;28;20032;-79
2021/06/30 09:24:40;;;;;;;7.05;6.10;;;19.30;99.90;;;;;;5091888;28;20016;-78
2021/06/30 09:27:07;;;;;;;8.95;6.53;;;19.30;99.90;;;;;;5091896;28;20154;-79
2021/06/30 09:29:33;;;;;;;7.50;6.07;;;19.20;99.90;;;;;;5091519;28;20047;-79
2021/06/30 09:31:58;;;;;;;6.90;6.20;;;19.20;99.90;;;;;;5091736;28;20028;-79
2021/06/30 09:34:27;;;;;;;6.60;5.80;;;19.20;99.90;;;;;;5091687;28;20365;-78
2021/06/30 09:36:54;;;;;;;7.40;5.88;;;19.20;99.90;;;;;;5091444;28;20117;-79
2021/06/30 09:39:21;;;;;;;6.60;5.90;;;19.20;99.90;;;;;;5091505;28;20047;-78
2021/06/30 09:41:47;;;;;;;7.70;6.10;;;19.20;99.90;;;;;;5091330;28;20457;-79
2021/06/30 09:44:18;;;;;;;8.63;6.55;;;19.10;99.90;;;;;;5091663;28;20108;-79
2021/06/30 09:46:44;;;;;;;8.37;6.70;;;19.10;99.90;;;;;;5091449;28;20031;-78
2021/06/30 09:49:16;;;;;;;10.57;7.65;;;19.00;99.90;;;;;;5091402;28;20273;-79
2021/06/30 09:51:45;;;;;;;8.75;7.18;;;19.00;99.90;;;;;;5091212;28;20024;-79
2021/06/30 09:54:16;;;;;;;8.18;6.70;;;19.00;99.90;;;;;;5091189;28;20229;-78
2021/06/30 09:56:56;;;;;;;10.32;7.05;;;19.00;99.90;;;;;;5091045;28;20080;-78
2021/06/30 09:59:24;;;;;;;7.63;6.78;;;19.00;99.90;;;;;;5091135;28;20036;-79
2021/06/30 10:01:56;;;;;;;8.20;7.00;;;19.00;99.90;;;;;;5090931;28;20028;-78
2021/06/30 10:04:23;;;;;;;12.43;7.60;;;19.00;99.90;;;;;;5091147;28;20179;-78
2021/06/30 10:06:48;;;;;;;9.73;8.45;;;19.00;99.90;;;;;;5090730;28;20028;-78
2021/06/30 10:09:14;;;;;;;10.48;7.80;;;19.10;99.90;;;;;;5090929;28;20466;-78
2021/06/30 10:11:41;;;;;;;9.15;7.80;;;19.10;99.90;;;;;;5090942;28;20044;-79
2021/06/30 10:14:06;;;;;;;8.50;7.03;;;19.10;99.90;;;;;;5090896;28;20028;-79
2021/06/30 10:16:32;;;;;;;8.02;6.70;;;19.10;99.90;;;;;;5090701;28;20030;-79
2021/06/30 10:18:59;;;;;;;6.78;5.82;;;19.20;99.90;;;;;;5090678;28;20024;-80
2021/06/30 10:21:30;;;;;;;6.80;5.90;;;19.30;99.90;;;;;;5090093;28;20024;-79
2021/06/30 10:23:56;;;;;;;6.90;5.88;;;19.30;99.90;;;;;;5090570;28;20093;-78
2021/06/30 10:26:22;;;;;;;6.43;5.55;;;19.20;99.90;;;;;;5090606;28;20028;-78
2021/06/30 10:28:58;;;;;;;8.07;5.70;;;19.20;99.90;;;;;;5089114;28;20521;-78
2021/06/30 10:31:24;;;;;;;7.72;5.85;;;19.30;99.90;;;;;;5090724;28;20054;-80
2021/06/30 10:34:05;;;;;;;6.13;5.53;;;19.20;99.90;;;;;;5090344;28;20051;-79
2021/06/30 10:36:53;;;;;;;6.90;6.20;;;19.30;99.90;;;;;;5090341;28;20533;-80
2021/06/30 10:39:35;;;;;;;7.47;5.25;;;19.30;99.90;;;;;;5090367;28;20059;-79
2021/06/30 10:42:19;;;;;;;5.40;4.88;;;19.30;99.90;;;;;;5090343;28;20168;-78
2021/06/30 10:44:53;;;;;;;6.00;5.35;;;19.30;99.90;;;;;;5090267;28;20054;-79
2021/06/30 10:47:34;;;;;;;6.70;5.55;;;19.30;99.90;;;;;;5090101;28;20089;-79
2021/06/30 10:50:19;;;;;;;7.13;6.07;;;19.30;99.90;;;;;;5090271;28;20024;-78
2021/06/30 10:52:45;;;;;;;8.52;6.65;;;19.30;99.90;;;;;;5090032;28;20111;-78
2021/06/30 10:55:30;;;;;;;8.20;6.68;;;19.30;99.90;;;;;;5089963;28;20115;-78
2021/06/30 10:58:10;;;;;;;7.45;6.38;;;19.30;99.90;;;;;;5090078;28;20031;-78
2021/06/30 11:00:37;;;;;;;8.33;6.77;;;19.30;99.90;;;;;;5077400;28;20027;-79
2021/06/30 11:03:22;;;;;;;8.07;6.80;;;19.40;99.90;;;;;;5089762;28;20059;-78
2021/06/30 11:05:47;;;;;;;8.40;7.38;;;19.40;99.90;;;;;;5088439;28;20047;-79
2021/06/30 11:08:45;;;;;;;8.70;7.70;;;19.30;99.90;;;;;;5088371;28;20441;-78
2021/06/30 11:11:16;;;;;;;8.68;7.78;;;19.40;99.90;;;;;;5089812;28;20028;-78
2021/06/30 11:14:17;;;;;;;10.63;8.40;;;19.40;99.90;;;;;;5089571;28;20487;-78
2021/06/30 11:16:46;;;;;;;10.73;8.57;;;19.40;99.90;;;;;;5035463;28;20457;-78
2021/06/30 11:19:17;;;;;;;11.20;8.27;;;19.50;99.90;;;;;;5089700;28;20052;-79
2021/06/30 11:21:52;;;;;;;8.02;7.18;;;19.40;99.90;;;;;;5088185;28;20379;-79
2021/06/30 11:24:35;;;;;;;12.18;7.85;;;19.40;99.90;;;;;;5089603;28;20029;-78
2021/06/30 11:27:13;;;;;;;9.93;8.65;;;19.30;99.90;;;;;;5089518;28;20299;-78
2021/06/30 11:29:42;;;;;;;12.57;9.90;;;19.30;99.90;;;;;;5089353;28;20513;-79
2021/06/30 11:32:09;;;;;;;12.20;9.55;;;19.30;99.90;;;;;;5088683;28;20026;-79
2021/06/30 11:34:39;;;;;;;11.52;9.85;;;19.30;99.90;;;;;;5076016;28;20027;-78
2021/06/30 11:37:07;;;;;;;10.90;8.70;;;19.30;99.90;;;;;;5089194;28;20426;-79
2021/06/30 11:39:33;;;;;;;10.02;8.30;;;19.30;99.90;;;;;;5089156;28;20070;-79
2021/06/30 11:42:01;;;;;;;13.90;9.55;;;19.30;99.90;;;;;;5089050;28;20024;-79
2021/06/30 11:44:36;;;;;;;10.13;8.65;;;19.30;99.90;;;;;;5089274;28;20016;-78
2021/06/30 11:47:06;;;;;;;11.98;9.73;;;19.30;99.90;;;;;;5089047;28;20028;-78
2021/06/30 11:49:32;;;;;;;10.23;7.75;;;19.30;99.90;;;;;;5089162;28;20020;-78
2021/06/30 11:52:00;;;;;;;10.50;8.05;;;19.30;99.90;;;;;;5089153;28;20028;-78
2021/06/30 11:54:27;;;;;;;9.48;7.70;;;19.30;99.90;;;;;;5089138;28;20028;-79
2021/06/30 11:56:53;;;;;;;13.00;9.00;;;19.20;99.90;;;;;;5088728;28;20481;-78
2021/06/30 11:59:25;;;;;;;13.55;9.02;;;19.30;99.90;;;;;;5088771;28;20186;-79
2021/06/30 12:01:52;;;;;;;11.82;8.93;;;19.20;99.90;;;;;;5088813;28;20065;-79
2021/06/30 12:04:28;;;;;;;15.95;11.32;;;19.20;99.90;;;;;;5088952;28;20035;-78
2021/06/30 12:06:58;;;;;;;11.90;9.52;;;19.20;99.90;;;;;;5088939;28;20027;-79
2021/06/30 12:09:25;;;;;;;11.52;9.20;;;19.20;99.90;;;;;;5088673;28;20048;-79
2021/06/30 12:11:58;;;;;;;11.43;9.20;;;19.20;99.90;;;;;;5088264;28;20028;-78
2021/06/30 12:14:35;;;;;;;13.07;8.30;;;19.10;99.90;;;;;;5088892;28;20031;-79
2021/06/30 12:17:06;;;;;;;11.02;8.70;;;19.00;99.90;;;;;;5088594;28;20138;-78
2021/06/30 12:19:34;;;;;;;11.35;9.38;;;19.00;99.90;;;;;;5088724;28;20070;-78
2021/06/30 12:22:01;;;;;;;12.13;9.75;;;18.90;99.90;;;;;;5088624;28;20016;-78
2021/06/30 12:24:27;;;;;;;11.68;9.77;;;18.90;99.90;;;;;;5088592;28;20066;-78
2021/06/30 12:27:08;;;;;;;17.15;12.07;;;19.00;99.90;;;;;;5088507;28;20016;-78
2021/06/30 12:29:37;;;;;;;11.10;8.73;;;18.90;99.90;;;;;;5088557;28;20429;-78
2021/06/30 12:32:08;;;;;;;12.75;10.55;;;19.00;99.90;;;;;;5088604;28;20032;-78
2021/06/30 12:34:34;;;;;;;10.70;8.20;;;18.90;99.90;;;;;;5088599;28;20398;-78